sensor_id;sensor_type;location;lat;lon;timestamp;P1;durP1;ratioP1;P2;durP2;ratioP2
71790;SDS011;59638;52.126;5.434;2023-08-08T00:01:08;4.93;;;1.30;;
71790;SDS011;59638;52.126;5.434;2023-08-08T00:03:35;6.68;;;1.40;;
71790;SDS011;59638;52.126;5.434;2023-08-08T00:06:02;7.10;;;1.47;;
71790;SDS011;59638;52.126;5.434;2023-08-08T00:08:28;9.57;;;1.52;;
71790;SDS011;59638;52.126;5.434;2023-08-08T00:10:55;13.68;;;1.33;;
71790;SDS011;59638;52.126;5.434;2023-08-08T00:13:21;12.05;;;1.48;;
71790;SDS011;59638;52.126;5.434;2023-08-08T00:15:48;3.40;;;1.00;;
71790;SDS011;59638;52.126;5.434;2023-08-08T00:18:15;10.70;;;1.97;;
71790;SDS011;59638;52.126;5.434;2023-08-08T00:20:41;12.27;;;1.10;;
71790;SDS011;59638;52.126;5.434;2023-08-08T00:23:08;4.53;;;1.05;;
71790;SDS011;59638;52.126;5.434;2023-08-08T00:25:35;7.07;;;0.82;;
71790;SDS011;59638;52.126;5.434;2023-08-08T00:28:02;5.65;;;1.27;;
71790;SDS011;59638;52.126;5.434;2023-08-08T00:30:29;13.60;;;1.10;;
71790;SDS011;59638;52.126;5.434;2023-08-08T00:32:55;6.47;;;1.02;;
71790;SDS011;59638;52.126;5.434;2023-08-08T00:35:22;6.80;;;1.33;;
71790;SDS011;59638;52.126;5.434;2023-08-08T00:37:48;8.00;;;1.23;;
71790;SDS011;59638;52.126;5.434;2023-08-08T00:40:15;9.85;;;1.05;;
71790;SDS011;59638;52.126;5.434;2023-08-08T00:42:42;11.53;;;1.93;;
71790;SDS011;59638;52.126;5.434;2023-08-08T00:45:08;9.85;;;1.33;;
71790;SDS011;59638;52.126;5.434;2023-08-08T00:47:35;6.85;;;1.02;;
71790;SDS011;59638;52.126;5.434;2023-08-08T00:50:02;6.22;;;1.05;;
71790;SDS011;59638;52.126;5.434;2023-08-08T00:52:30;6.95;;;1.80;;
71790;SDS011;59638;52.126;5.434;2023-08-08T00:54:57;8.00;;;1.20;;
71790;SDS011;59638;52.126;5.434;2023-08-08T00:57:24;10.18;;;1.00;;
71790;SDS011;59638;52.126;5.434;2023-08-08T00:59:50;10.90;;;1.10;;
71790;SDS011;59638;52.126;5.434;2023-08-08T01:02:17;5.65;;;0.77;;
71790;SDS011;59638;52.126;5.434;2023-08-08T01:04:44;5.82;;;0.90;;
71790;SDS011;59638;52.126;5.434;2023-08-08T01:10:17;5.07;;;0.98;;
71790;SDS011;59638;52.126;5.434;2023-08-08T01:12:50;6.78;;;0.75;;
71790;SDS011;59638;52.126;5.434;2023-08-08T01:15:20;6.40;;;0.68;;
71790;SDS011;59638;52.126;5.434;2023-08-08T01:17:48;6.47;;;0.88;;
71790;SDS011;59638;52.126;5.434;2023-08-08T01:20:15;9.47;;;1.23;;
71790;SDS011;59638;52.126;5.434;2023-08-08T01:25:24;10.23;;;1.45;;
71790;SDS011;59638;52.126;5.434;2023-08-08T01:27:51;7.47;;;0.88;;
71790;SDS011;59638;52.126;5.434;2023-08-08T01:30:17;6.10;;;0.77;;
71790;SDS011;59638;52.126;5.434;2023-08-08T01:32:44;11.80;;;0.87;;
71790;SDS011;59638;52.126;5.434;2023-08-08T01:35:10;10.25;;;0.70;;
71790;SDS011;59638;52.126;5.434;2023-08-08T01:37:41;10.15;;;1.00;;
71790;SDS011;59638;52.126;5.434;2023-08-08T01:40:13;4.75;;;0.90;;
71790;SDS011;59638;52.126;5.434;2023-08-08T01:42:46;15.35;;;1.30;;
71790;SDS011;59638;52.126;5.434;2023-08-08T01:45:17;6.10;;;0.97;;
71790;SDS011;59638;52.126;5.434;2023-08-08T01:47:50;3.65;;;0.60;;
71790;SDS011;59638;52.126;5.434;2023-08-08T01:50:17;6.90;;;0.90;;
71790;SDS011;59638;52.126;5.434;2023-08-08T01:52:44;9.75;;;0.88;;
71790;SDS011;59638;52.126;5.434;2023-08-08T01:55:11;8.55;;;1.00;;
71790;SDS011;59638;52.126;5.434;2023-08-08T01:57:37;9.30;;;0.70;;
71790;SDS011;59638;52.126;5.434;2023-08-08T02:00:05;12.35;;;1.10;;
71790;SDS011;59638;52.126;5.434;2023-08-08T02:02:32;5.82;;;0.90;;
71790;SDS011;59638;52.126;5.434;2023-08-08T02:04:59;5.85;;;0.80;;
71790;SDS011;59638;52.126;5.434;2023-08-08T02:07:25;5.55;;;0.75;;
71790;SDS011;59638;52.126;5.434;2023-08-08T02:09:52;8.73;;;0.80;;
71790;SDS011;59638;52.126;5.434;2023-08-08T02:12:18;7.22;;;1.05;;
71790;SDS011;59638;52.126;5.434;2023-08-08T02:14:45;9.20;;;0.80;;
71790;SDS011;59638;52.126;5.434;2023-08-08T02:17:11;13.07;;;1.00;;
71790;SDS011;59638;52.126;5.434;2023-08-08T02:19:37;10.13;;;1.20;;
71790;SDS011;59638;52.126;5.434;2023-08-08T02:22:04;5.43;;;0.87;;
71790;SDS011;59638;52.126;5.434;2023-08-08T02:24:30;8.93;;;0.85;;
71790;SDS011;59638;52.126;5.434;2023-08-08T02:26:57;8.38;;;0.80;;
71790;SDS011;59638;52.126;5.434;2023-08-08T02:29:23;9.50;;;0.77;;
71790;SDS011;59638;52.126;5.434;2023-08-08T02:31:50;8.18;;;0.68;;
71790;SDS011;59638;52.126;5.434;2023-08-08T02:34:16;7.20;;;1.40;;
71790;SDS011;59638;52.126;5.434;2023-08-08T02:36:43;9.63;;;1.23;;
71790;SDS011;59638;52.126;5.434;2023-08-08T02:39:09;7.07;;;0.73;;
71790;SDS011;59638;52.126;5.434;2023-08-08T02:41:36;10.40;;;0.80;;
71790;SDS011;59638;52.126;5.434;2023-08-08T02:44:02;10.52;;;0.98;;
71790;SDS011;59638;52.126;5.434;2023-08-08T02:46:29;9.07;;;1.00;;
71790;SDS011;59638;52.126;5.434;2023-08-08T02:48:55;12.55;;;1.40;;
71790;SDS011;59638;52.126;5.434;2023-08-08T02:51:22;9.15;;;1.10;;
71790;SDS011;59638;52.126;5.434;2023-08-08T02:53:48;12.32;;;1.38;;
71790;SDS011;59638;52.126;5.434;2023-08-08T02:56:15;14.25;;;1.20;;
71790;SDS011;59638;52.126;5.434;2023-08-08T02:58:41;6.93;;;1.07;;
71790;SDS011;59638;52.126;5.434;2023-08-08T03:01:08;8.73;;;1.50;;
71790;SDS011;59638;52.126;5.434;2023-08-08T03:03:34;8.38;;;1.35;;
71790;SDS011;59638;52.126;5.434;2023-08-08T03:06:01;4.47;;;1.33;;
71790;SDS011;59638;52.126;5.434;2023-08-08T03:08:28;9.20;;;1.20;;
71790;SDS011;59638;52.126;5.434;2023-08-08T03:10:54;10.50;;;1.37;;
71790;SDS011;59638;52.126;5.434;2023-08-08T03:13:21;10.65;;;1.25;;
71790;SDS011;59638;52.126;5.434;2023-08-08T03:15:48;7.25;;;1.40;;
71790;SDS011;59638;52.126;5.434;2023-08-08T03:18:15;10.85;;;1.08;;
71790;SDS011;59638;52.126;5.434;2023-08-08T03:20:41;8.07;;;1.63;;
71790;SDS011;59638;52.126;5.434;2023-08-08T03:23:08;5.17;;;1.23;;
71790;SDS011;59638;52.126;5.434;2023-08-08T03:25:34;12.40;;;1.88;;
71790;SDS011;59638;52.126;5.434;2023-08-08T03:28:01;13.05;;;1.33;;
71790;SDS011;59638;52.126;5.434;2023-08-08T03:30:27;6.80;;;0.98;;
71790;SDS011;59638;52.126;5.434;2023-08-08T03:32:54;11.90;;;1.00;;
71790;SDS011;59638;52.126;5.434;2023-08-08T03:35:20;12.77;;;1.27;;
71790;SDS011;59638;52.126;5.434;2023-08-08T03:37:47;5.43;;;1.48;;
71790;SDS011;59638;52.126;5.434;2023-08-08T03:40:13;13.65;;;1.10;;
71790;SDS011;59638;52.126;5.434;2023-08-08T03:42:41;9.93;;;1.52;;
71790;SDS011;59638;52.126;5.434;2023-08-08T03:45:07;8.55;;;2.47;;
71790;SDS011;59638;52.126;5.434;2023-08-08T03:47:34;13.37;;;1.70;;
71790;SDS011;59638;52.126;5.434;2023-08-08T03:50:01;9.68;;;1.70;;
71790;SDS011;59638;52.126;5.434;2023-08-08T03:52:28;10.10;;;1.70;;
71790;SDS011;59638;52.126;5.434;2023-08-08T03:54:55;9.82;;;1.75;;
71790;SDS011;59638;52.126;5.434;2023-08-08T03:57:21;14.02;;;1.85;;
71790;SDS011;59638;52.126;5.434;2023-08-08T03:59:48;8.50;;;1.70;;
71790;SDS011;59638;52.126;5.434;2023-08-08T04:02:14;7.07;;;1.85;;
71790;SDS011;59638;52.126;5.434;2023-08-08T04:04:41;8.43;;;1.95;;
71790;SDS011;59638;52.126;5.434;2023-08-08T04:07:07;7.50;;;1.88;;
71790;SDS011;59638;52.126;5.434;2023-08-08T04:09:34;14.48;;;2.20;;
71790;SDS011;59638;52.126;5.434;2023-08-08T04:12:00;9.83;;;1.77;;
71790;SDS011;59638;52.126;5.434;2023-08-08T04:14:27;11.77;;;2.13;;
71790;SDS011;59638;52.126;5.434;2023-08-08T04:16:54;8.57;;;2.08;;
71790;SDS011;59638;52.126;5.434;2023-08-08T04:19:20;6.80;;;1.65;;
71790;SDS011;59638;52.126;5.434;2023-08-08T04:21:47;5.78;;;2.08;;
71790;SDS011;59638;52.126;5.434;2023-08-08T04:24:13;10.73;;;2.07;;
71790;SDS011;59638;52.126;5.434;2023-08-08T04:26:40;5.30;;;1.48;;
71790;SDS011;59638;52.126;5.434;2023-08-08T04:29:06;8.15;;;1.58;;
71790;SDS011;59638;52.126;5.434;2023-08-08T04:31:33;10.60;;;1.70;;
71790;SDS011;59638;52.126;5.434;2023-08-08T04:33:59;9.73;;;1.85;;
71790;SDS011;59638;52.126;5.434;2023-08-08T04:36:27;8.77;;;1.87;;
71790;SDS011;59638;52.126;5.434;2023-08-08T04:38:54;10.35;;;1.75;;
71790;SDS011;59638;52.126;5.434;2023-08-08T04:41:21;7.97;;;1.45;;
71790;SDS011;59638;52.126;5.434;2023-08-08T04:43:48;7.95;;;1.88;;
71790;SDS011;59638;52.126;5.434;2023-08-08T04:46:14;5.22;;;1.65;;
71790;SDS011;59638;52.126;5.434;2023-08-08T04:48:41;4.77;;;1.60;;
71790;SDS011;59638;52.126;5.434;2023-08-08T04:51:08;3.88;;;1.60;;
71790;SDS011;59638;52.126;5.434;2023-08-08T04:53:34;4.00;;;1.02;;
71790;SDS011;59638;52.126;5.434;2023-08-08T04:56:01;4.25;;;0.98;;
71790;SDS011;59638;52.126;5.434;2023-08-08T04:58:27;5.13;;;1.58;;
71790;SDS011;59638;52.126;5.434;2023-08-08T05:00:54;7.03;;;1.73;;
71790;SDS011;59638;52.126;5.434;2023-08-08T05:03:21;6.75;;;1.00;;
71790;SDS011;59638;52.126;5.434;2023-08-08T05:05:48;5.10;;;1.50;;
71790;SDS011;59638;52.126;5.434;2023-08-08T05:08:14;6.38;;;0.80;;
71790;SDS011;59638;52.126;5.434;2023-08-08T05:10:41;6.28;;;1.25;;
71790;SDS011;59638;52.126;5.434;2023-08-08T05:13:08;5.67;;;0.80;;
71790;SDS011;59638;52.126;5.434;2023-08-08T05:15:35;7.57;;;1.00;;
71790;SDS011;59638;52.126;5.434;2023-08-08T05:18:02;7.20;;;1.65;;
71790;SDS011;59638;52.126;5.434;2023-08-08T05:20:28;7.78;;;1.10;;
71790;SDS011;59638;52.126;5.434;2023-08-08T05:22:55;6.70;;;1.45;;
71790;SDS011;59638;52.126;5.434;2023-08-08T05:25:21;6.50;;;1.00;;
71790;SDS011;59638;52.126;5.434;2023-08-08T05:27:48;4.63;;;1.00;;
71790;SDS011;59638;52.126;5.434;2023-08-08T05:30:16;5.13;;;1.17;;
71790;SDS011;59638;52.126;5.434;2023-08-08T05:32:42;7.30;;;1.27;;
71790;SDS011;59638;52.126;5.434;2023-08-08T05:35:09;3.45;;;1.10;;
71790;SDS011;59638;52.126;5.434;2023-08-08T05:37:36;3.43;;;0.77;;
71790;SDS011;59638;52.126;5.434;2023-08-08T05:40:02;3.60;;;1.10;;
71790;SDS011;59638;52.126;5.434;2023-08-08T05:42:32;7.80;;;1.10;;
71790;SDS011;59638;52.126;5.434;2023-08-08T05:44:58;3.03;;;0.90;;
71790;SDS011;59638;52.126;5.434;2023-08-08T05:47:25;7.03;;;0.98;;
71790;SDS011;59638;52.126;5.434;2023-08-08T05:49:52;8.90;;;0.80;;
71790;SDS011;59638;52.126;5.434;2023-08-08T05:52:19;4.10;;;0.93;;
71790;SDS011;59638;52.126;5.434;2023-08-08T05:54:45;5.53;;;0.90;;
71790;SDS011;59638;52.126;5.434;2023-08-08T05:57:12;5.20;;;0.50;;
71790;SDS011;59638;52.126;5.434;2023-08-08T05:59:38;7.10;;;0.68;;
71790;SDS011;59638;52.126;5.434;2023-08-08T06:02:04;3.70;;;0.90;;
71790;SDS011;59638;52.126;5.434;2023-08-08T06:04:32;2.08;;;0.50;;
71790;SDS011;59638;52.126;5.434;2023-08-08T06:06:58;5.93;;;0.40;;
71790;SDS011;59638;52.126;5.434;2023-08-08T06:09:25;3.33;;;0.70;;
71790;SDS011;59638;52.126;5.434;2023-08-08T06:11:51;2.15;;;0.40;;
71790;SDS011;59638;52.126;5.434;2023-08-08T06:14:18;3.00;;;0.47;;
71790;SDS011;59638;52.126;5.434;2023-08-08T06:16:44;5.35;;;0.38;;
71790;SDS011;59638;52.126;5.434;2023-08-08T06:19:12;1.98;;;0.30;;
71790;SDS011;59638;52.126;5.434;2023-08-08T06:21:41;2.13;;;0.20;;
71790;SDS011;59638;52.126;5.434;2023-08-08T06:24:08;1.92;;;0.30;;
71790;SDS011;59638;52.126;5.434;2023-08-08T06:26:34;4.53;;;0.30;;
71790;SDS011;59638;52.126;5.434;2023-08-08T06:29:01;2.08;;;0.20;;
71790;SDS011;59638;52.126;5.434;2023-08-08T06:31:27;3.85;;;0.30;;
71790;SDS011;59638;52.126;5.434;2023-08-08T06:33:53;3.40;;;0.20;;
71790;SDS011;59638;52.126;5.434;2023-08-08T06:36:20;4.15;;;0.20;;
71790;SDS011;59638;52.126;5.434;2023-08-08T06:38:46;2.37;;;0.30;;
71790;SDS011;59638;52.126;5.434;2023-08-08T06:41:13;1.80;;;0.28;;
71790;SDS011;59638;52.126;5.434;2023-08-08T06:43:39;1.40;;;0.13;;
71790;SDS011;59638;52.126;5.434;2023-08-08T06:46:06;3.47;;;0.20;;
71790;SDS011;59638;52.126;5.434;2023-08-08T06:48:32;3.97;;;0.22;;
71790;SDS011;59638;52.126;5.434;2023-08-08T06:50:59;0.87;;;0.30;;
71790;SDS011;59638;52.126;5.434;2023-08-08T06:53:26;2.72;;;0.28;;
71790;SDS011;59638;52.126;5.434;2023-08-08T06:55:52;1.40;;;0.20;;
71790;SDS011;59638;52.126;5.434;2023-08-08T06:58:19;1.83;;;0.30;;
71790;SDS011;59638;52.126;5.434;2023-08-08T07:00:45;3.22;;;0.30;;
71790;SDS011;59638;52.126;5.434;2023-08-08T07:03:12;2.77;;;0.10;;
71790;SDS011;59638;52.126;5.434;2023-08-08T07:05:38;2.08;;;0.40;;
71790;SDS011;59638;52.126;5.434;2023-08-08T07:08:05;6.45;;;0.15;;
71790;SDS011;59638;52.126;5.434;2023-08-08T07:10:32;5.03;;;0.22;;
71790;SDS011;59638;52.126;5.434;2023-08-08T07:12:58;3.83;;;0.10;;
71790;SDS011;59638;52.126;5.434;2023-08-08T07:15:25;3.23;;;0.10;;
71790;SDS011;59638;52.126;5.434;2023-08-08T07:17:52;1.20;;;0.10;;
71790;SDS011;59638;52.126;5.434;2023-08-08T07:20:18;2.97;;;0.40;;
71790;SDS011;59638;52.126;5.434;2023-08-08T07:22:45;1.98;;;0.20;;
71790;SDS011;59638;52.126;5.434;2023-08-08T07:25:12;1.20;;;0.20;;
71790;SDS011;59638;52.126;5.434;2023-08-08T07:27:38;2.27;;;0.10;;
71790;SDS011;59638;52.126;5.434;2023-08-08T07:30:05;1.52;;;0.17;;
71790;SDS011;59638;52.126;5.434;2023-08-08T07:32:33;0.90;;;0.10;;
71790;SDS011;59638;52.126;5.434;2023-08-08T07:35:00;0.75;;;0.10;;
71790;SDS011;59638;52.126;5.434;2023-08-08T07:37:32;4.07;;;0.40;;
71790;SDS011;59638;52.126;5.434;2023-08-08T07:39:59;3.03;;;0.20;;
71790;SDS011;59638;52.126;5.434;2023-08-08T07:42:26;2.28;;;0.10;;
71790;SDS011;59638;52.126;5.434;2023-08-08T07:44:53;4.32;;;1.45;;
71790;SDS011;59638;52.126;5.434;2023-08-08T07:47:20;2.75;;;0.30;;
71790;SDS011;59638;52.126;5.434;2023-08-08T07:49:46;3.22;;;0.20;;
71790;SDS011;59638;52.126;5.434;2023-08-08T07:52:13;2.47;;;0.10;;
71790;SDS011;59638;52.126;5.434;2023-08-08T07:54:39;0.95;;;0.10;;
71790;SDS011;59638;52.126;5.434;2023-08-08T07:57:06;0.60;;;0.10;;
71790;SDS011;59638;52.126;5.434;2023-08-08T07:59:32;2.65;;;0.10;;
71790;SDS011;59638;52.126;5.434;2023-08-08T08:01:59;1.73;;;0.15;;
71790;SDS011;59638;52.126;5.434;2023-08-08T08:04:26;1.07;;;0.20;;
71790;SDS011;59638;52.126;5.434;2023-08-08T08:06:52;0.73;;;0.10;;
71790;SDS011;59638;52.126;5.434;2023-08-08T08:09:18;1.92;;;0.52;;
71790;SDS011;59638;52.126;5.434;2023-08-08T08:11:45;2.58;;;0.30;;
71790;SDS011;59638;52.126;5.434;2023-08-08T08:14:11;1.65;;;0.63;;
71790;SDS011;59638;52.126;5.434;2023-08-08T08:16:38;0.73;;;0.17;;
71790;SDS011;59638;52.126;5.434;2023-08-08T08:19:04;1.38;;;0.10;;
71790;SDS011;59638;52.126;5.434;2023-08-08T08:21:31;1.10;;;0.20;;
71790;SDS011;59638;52.126;5.434;2023-08-08T08:23:57;0.68;;;0.10;;
71790;SDS011;59638;52.126;5.434;2023-08-08T08:26:24;1.70;;;0.20;;
71790;SDS011;59638;52.126;5.434;2023-08-08T08:28:50;2.20;;;0.10;;
71790;SDS011;59638;52.126;5.434;2023-08-08T08:31:17;0.68;;;0.20;;
71790;SDS011;59638;52.126;5.434;2023-08-08T08:33:44;4.18;;;0.20;;
71790;SDS011;59638;52.126;5.434;2023-08-08T08:36:11;1.58;;;0.10;;
71790;SDS011;59638;52.126;5.434;2023-08-08T08:38:39;1.55;;;0.20;;
71790;SDS011;59638;52.126;5.434;2023-08-08T08:41:06;1.83;;;0.20;;
71790;SDS011;59638;52.126;5.434;2023-08-08T08:43:35;2.15;;;1.10;;
71790;SDS011;59638;52.126;5.434;2023-08-08T08:46:01;1.00;;;0.50;;
71790;SDS011;59638;52.126;5.434;2023-08-08T08:48:29;1.30;;;0.10;;
71790;SDS011;59638;52.126;5.434;2023-08-08T08:50:57;0.82;;;0.10;;
71790;SDS011;59638;52.126;5.434;2023-08-08T08:53:25;0.53;;;0.10;;
71790;SDS011;59638;52.126;5.434;2023-08-08T08:55:52;0.73;;;0.10;;
71790;SDS011;59638;52.126;5.434;2023-08-08T08:58:19;0.63;;;0.10;;
71790;SDS011;59638;52.126;5.434;2023-08-08T09:00:47;1.50;;;0.17;;
71790;SDS011;59638;52.126;5.434;2023-08-08T09:03:14;0.70;;;0.20;;
71790;SDS011;59638;52.126;5.434;2023-08-08T09:05:42;1.10;;;0.17;;
71790;SDS011;59638;52.126;5.434;2023-08-08T09:08:11;2.00;;;0.28;;
71790;SDS011;59638;52.126;5.434;2023-08-08T09:10:38;1.05;;;0.10;;
71790;SDS011;59638;52.126;5.434;2023-08-08T09:13:04;0.88;;;0.20;;
71790;SDS011;59638;52.126;5.434;2023-08-08T09:15:34;1.02;;;0.10;;
71790;SDS011;59638;52.126;5.434;2023-08-08T09:18:01;1.77;;;0.40;;
71790;SDS011;59638;52.126;5.434;2023-08-08T09:20:27;1.50;;;0.10;;
71790;SDS011;59638;52.126;5.434;2023-08-08T09:22:54;0.40;;;0.10;;
71790;SDS011;59638;52.126;5.434;2023-08-08T09:25:21;0.30;;;0.10;;
71790;SDS011;59638;52.126;5.434;2023-08-08T09:27:48;1.67;;;0.10;;
71790;SDS011;59638;52.126;5.434;2023-08-08T09:30:15;0.53;;;0.10;;
71790;SDS011;59638;52.126;5.434;2023-08-08T09:32:43;0.43;;;0.10;;
71790;SDS011;59638;52.126;5.434;2023-08-08T09:35:09;4.97;;;0.30;;
71790;SDS011;59638;52.126;5.434;2023-08-08T09:37:36;1.33;;;0.10;;
71790;SDS011;59638;52.126;5.434;2023-08-08T09:40:04;1.15;;;0.15;;
71790;SDS011;59638;52.126;5.434;2023-08-08T09:42:34;0.77;;;0.10;;
71790;SDS011;59638;52.126;5.434;2023-08-08T09:45:01;0.80;;;0.20;;
71790;SDS011;59638;52.126;5.434;2023-08-08T09:47:28;0.65;;;0.20;;
71790;SDS011;59638;52.126;5.434;2023-08-08T09:50:00;1.40;;;0.17;;
71790;SDS011;59638;52.126;5.434;2023-08-08T09:52:30;0.60;;;0.20;;
71790;SDS011;59638;52.126;5.434;2023-08-08T09:54:59;2.20;;;0.13;;
71790;SDS011;59638;52.126;5.434;2023-08-08T09:57:26;0.43;;;0.10;;
71790;SDS011;59638;52.126;5.434;2023-08-08T09:59:53;1.70;;;0.20;;
71790;SDS011;59638;52.126;5.434;2023-08-08T10:02:20;0.52;;;0.10;;
71790;SDS011;59638;52.126;5.434;2023-08-08T10:04:47;1.05;;;0.20;;
71790;SDS011;59638;52.126;5.434;2023-08-08T10:07:14;1.70;;;0.20;;
71790;SDS011;59638;52.126;5.434;2023-08-08T10:09:41;1.27;;;0.10;;
71790;SDS011;59638;52.126;5.434;2023-08-08T10:12:08;1.85;;;0.20;;
71790;SDS011;59638;52.126;5.434;2023-08-08T10:14:37;0.70;;;0.20;;
71790;SDS011;59638;52.126;5.434;2023-08-08T10:17:07;0.82;;;0.13;;
71790;SDS011;59638;52.126;5.434;2023-08-08T10:19:34;1.67;;;0.13;;
71790;SDS011;59638;52.126;5.434;2023-08-08T10:22:05;0.80;;;0.10;;
71790;SDS011;59638;52.126;5.434;2023-08-08T10:24:34;1.00;;;0.20;;
71790;SDS011;59638;52.126;5.434;2023-08-08T10:27:04;0.77;;;0.10;;
71790;SDS011;59638;52.126;5.434;2023-08-08T10:29:32;1.63;;;0.35;;
71790;SDS011;59638;52.126;5.434;2023-08-08T10:32:00;0.60;;;0.20;;
71790;SDS011;59638;52.126;5.434;2023-08-08T10:34:39;2.90;;;0.20;;
71790;SDS011;59638;52.126;5.434;2023-08-08T10:37:10;1.73;;;0.20;;
71790;SDS011;59638;52.126;5.434;2023-08-08T10:39:38;0.82;;;0.10;;
71790;SDS011;59638;52.126;5.434;2023-08-08T10:42:18;3.47;;;0.22;;
71790;SDS011;59638;52.126;5.434;2023-08-08T10:44:52;0.60;;;0.20;;
71790;SDS011;59638;52.126;5.434;2023-08-08T10:47:26;1.13;;;0.10;;
71790;SDS011;59638;52.126;5.434;2023-08-08T10:50:04;0.68;;;0.20;;
71790;SDS011;59638;52.126;5.434;2023-08-08T10:52:38;0.47;;;0.10;;
71790;SDS011;59638;52.126;5.434;2023-08-08T10:55:19;0.75;;;0.10;;
71790;SDS011;59638;52.126;5.434;2023-08-08T10:57:53;0.33;;;0.10;;
71790;SDS011;59638;52.126;5.434;2023-08-08T11:00:25;0.93;;;0.20;;
71790;SDS011;59638;52.126;5.434;2023-08-08T11:02:53;0.88;;;0.20;;
71790;SDS011;59638;52.126;5.434;2023-08-08T11:05:21;0.50;;;0.20;;
71790;SDS011;59638;52.126;5.434;2023-08-08T11:07:49;0.75;;;0.10;;
71790;SDS011;59638;52.126;5.434;2023-08-08T11:10:16;0.23;;;0.10;;
71790;SDS011;59638;52.126;5.434;2023-08-08T11:12:53;1.00;;;0.20;;
71790;SDS011;59638;52.126;5.434;2023-08-08T11:15:21;0.52;;;0.20;;
71790;SDS011;59638;52.126;5.434;2023-08-08T11:17:48;1.50;;;0.20;;
71790;SDS011;59638;52.126;5.434;2023-08-08T11:20:15;0.40;;;0.10;;
71790;SDS011;59638;52.126;5.434;2023-08-08T11:22:42;2.70;;;0.10;;
71790;SDS011;59638;52.126;5.434;2023-08-08T11:25:08;1.95;;;0.20;;
71790;SDS011;59638;52.126;5.434;2023-08-08T11:27:35;1.13;;;0.10;;
71790;SDS011;59638;52.126;5.434;2023-08-08T11:30:04;1.17;;;0.20;;
71790;SDS011;59638;52.126;5.434;2023-08-08T11:32:35;0.75;;;0.20;;
71790;SDS011;59638;52.126;5.434;2023-08-08T11:35:01;1.13;;;0.20;;
71790;SDS011;59638;52.126;5.434;2023-08-08T11:37:28;1.95;;;0.10;;
71790;SDS011;59638;52.126;5.434;2023-08-08T11:39:55;4.97;;;0.20;;
71790;SDS011;59638;52.126;5.434;2023-08-08T11:42:21;0.75;;;0.10;;
71790;SDS011;59638;52.126;5.434;2023-08-08T11:44:48;3.90;;;0.30;;
71790;SDS011;59638;52.126;5.434;2023-08-08T11:47:16;0.53;;;0.30;;
71790;SDS011;59638;52.126;5.434;2023-08-08T11:49:43;0.88;;;0.10;;
71790;SDS011;59638;52.126;5.434;2023-08-08T11:52:09;0.85;;;0.10;;
71790;SDS011;59638;52.126;5.434;2023-08-08T11:54:39;1.13;;;0.20;;
71790;SDS011;59638;52.126;5.434;2023-08-08T11:57:05;0.73;;;0.20;;
71790;SDS011;59638;52.126;5.434;2023-08-08T11:59:32;1.47;;;0.20;;
71790;SDS011;59638;52.126;5.434;2023-08-08T12:01:59;1.55;;;0.10;;
71790;SDS011;59638;52.126;5.434;2023-08-08T12:04:26;4.00;;;0.10;;
71790;SDS011;59638;52.126;5.434;2023-08-08T12:07:11;1.40;;;0.20;;
71790;SDS011;59638;52.126;5.434;2023-08-08T12:09:38;2.00;;;0.20;;
71790;SDS011;59638;52.126;5.434;2023-08-08T12:12:05;2.90;;;0.30;;
71790;SDS011;59638;52.126;5.434;2023-08-08T12:14:38;1.85;;;0.10;;
71790;SDS011;59638;52.126;5.434;2023-08-08T12:17:22;2.25;;;0.20;;
71790;SDS011;59638;52.126;5.434;2023-08-08T12:19:48;1.63;;;0.20;;
71790;SDS011;59638;52.126;5.434;2023-08-08T12:22:15;1.63;;;0.20;;
71790;SDS011;59638;52.126;5.434;2023-08-08T12:24:42;2.00;;;0.20;;
71790;SDS011;59638;52.126;5.434;2023-08-08T12:27:09;2.65;;;0.20;;
71790;SDS011;59638;52.126;5.434;2023-08-08T12:29:35;1.35;;;0.15;;
71790;SDS011;59638;52.126;5.434;2023-08-08T12:32:02;0.63;;;0.20;;
71790;SDS011;59638;52.126;5.434;2023-08-08T12:34:29;1.52;;;0.25;;
71790;SDS011;59638;52.126;5.434;2023-08-08T12:36:56;0.93;;;0.10;;
71790;SDS011;59638;52.126;5.434;2023-08-08T12:39:22;1.00;;;0.10;;
71790;SDS011;59638;52.126;5.434;2023-08-08T12:41:49;4.97;;;0.20;;
71790;SDS011;59638;52.126;5.434;2023-08-08T12:44:15;0.90;;;0.20;;
71790;SDS011;59638;52.126;5.434;2023-08-08T12:46:42;2.38;;;0.82;;
71790;SDS011;59638;52.126;5.434;2023-08-08T12:49:08;2.30;;;0.20;;
71790;SDS011;59638;52.126;5.434;2023-08-08T12:51:35;0.80;;;0.20;;
71790;SDS011;59638;52.126;5.434;2023-08-08T12:54:01;2.72;;;0.20;;
71790;SDS011;59638;52.126;5.434;2023-08-08T12:56:27;1.83;;;0.20;;
71790;SDS011;59638;52.126;5.434;2023-08-08T12:58:54;1.75;;;0.20;;
71790;SDS011;59638;52.126;5.434;2023-08-08T13:01:21;1.33;;;0.20;;
71790;SDS011;59638;52.126;5.434;2023-08-08T13:03:47;1.55;;;0.45;;
71790;SDS011;59638;52.126;5.434;2023-08-08T13:06:34;1.88;;;0.30;;
71790;SDS011;59638;52.126;5.434;2023-08-08T13:09:00;4.45;;;0.20;;
71790;SDS011;59638;52.126;5.434;2023-08-08T13:11:27;0.50;;;0.30;;
71790;SDS011;59638;52.126;5.434;2023-08-08T13:13:53;3.80;;;0.63;;
71790;SDS011;59638;52.126;5.434;2023-08-08T13:16:19;2.55;;;0.20;;
71790;SDS011;59638;52.126;5.434;2023-08-08T13:18:46;1.83;;;0.20;;
71790;SDS011;59638;52.126;5.434;2023-08-08T13:21:12;0.80;;;0.10;;
71790;SDS011;59638;52.126;5.434;2023-08-08T13:23:40;0.98;;;0.20;;
71790;SDS011;59638;52.126;5.434;2023-08-08T13:26:07;1.07;;;0.20;;
71790;SDS011;59638;52.126;5.434;2023-08-08T13:28:34;3.03;;;0.13;;
71790;SDS011;59638;52.126;5.434;2023-08-08T13:31:00;0.63;;;0.20;;
71790;SDS011;59638;52.126;5.434;2023-08-08T13:33:27;3.25;;;0.30;;
71790;SDS011;59638;52.126;5.434;2023-08-08T13:35:53;0.95;;;0.20;;
71790;SDS011;59638;52.126;5.434;2023-08-08T13:38:20;1.50;;;0.10;;
71790;SDS011;59638;52.126;5.434;2023-08-08T13:40:47;0.63;;;0.10;;
71790;SDS011;59638;52.126;5.434;2023-08-08T13:43:13;0.95;;;0.85;;
71790;SDS011;59638;52.126;5.434;2023-08-08T13:45:40;4.22;;;0.20;;
71790;SDS011;59638;52.126;5.434;2023-08-08T13:48:06;2.15;;;0.20;;
71790;SDS011;59638;52.126;5.434;2023-08-08T13:50:33;2.17;;;0.10;;
71790;SDS011;59638;52.126;5.434;2023-08-08T13:52:59;2.33;;;0.30;;
71790;SDS011;59638;52.126;5.434;2023-08-08T13:55:26;0.65;;;0.15;;
71790;SDS011;59638;52.126;5.434;2023-08-08T13:57:53;1.17;;;0.10;;
71790;SDS011;59638;52.126;5.434;2023-08-08T14:00:21;0.98;;;0.20;;
71790;SDS011;59638;52.126;5.434;2023-08-08T14:02:48;1.27;;;0.20;;
71790;SDS011;59638;52.126;5.434;2023-08-08T14:05:14;1.38;;;0.20;;
71790;SDS011;59638;52.126;5.434;2023-08-08T14:07:41;1.35;;;0.30;;
71790;SDS011;59638;52.126;5.434;2023-08-08T14:10:08;2.28;;;0.20;;
71790;SDS011;59638;52.126;5.434;2023-08-08T14:12:39;0.65;;;0.10;;
71790;SDS011;59638;52.126;5.434;2023-08-08T14:15:06;1.70;;;0.20;;
71790;SDS011;59638;52.126;5.434;2023-08-08T14:17:33;2.22;;;0.28;;
71790;SDS011;59638;52.126;5.434;2023-08-08T14:20:00;3.50;;;0.10;;
71790;SDS011;59638;52.126;5.434;2023-08-08T14:22:27;0.85;;;0.20;;
71790;SDS011;59638;52.126;5.434;2023-08-08T14:24:53;2.80;;;0.20;;
71790;SDS011;59638;52.126;5.434;2023-08-08T14:27:19;2.93;;;0.30;;
71790;SDS011;59638;52.126;5.434;2023-08-08T14:29:46;1.10;;;0.40;;
71790;SDS011;59638;52.126;5.434;2023-08-08T14:32:12;2.30;;;0.20;;
71790;SDS011;59638;52.126;5.434;2023-08-08T14:34:39;3.33;;;0.22;;
71790;SDS011;59638;52.126;5.434;2023-08-08T14:37:06;0.95;;;0.20;;
71790;SDS011;59638;52.126;5.434;2023-08-08T14:39:33;0.70;;;0.10;;
71790;SDS011;59638;52.126;5.434;2023-08-08T14:42:01;0.70;;;0.20;;
71790;SDS011;59638;52.126;5.434;2023-08-08T14:44:29;1.30;;;0.20;;
71790;SDS011;59638;52.126;5.434;2023-08-08T14:46:55;0.50;;;0.17;;
71790;SDS011;59638;52.126;5.434;2023-08-08T14:49:22;1.08;;;0.20;;
71790;SDS011;59638;52.126;5.434;2023-08-08T14:51:49;2.00;;;0.20;;